createdAt,value
2018-04-24T00:01:40.664Z,9.20
2018-04-24T00:04:08.439Z,9.80
2018-04-24T00:06:35.906Z,11.13
2018-04-24T00:09:04.128Z,12.90
2018-04-24T00:11:32.346Z,8.33
2018-04-24T00:13:59.797Z,8.67
2018-04-24T00:16:27.245Z,11.63
2018-04-24T00:18:54.709Z,10.97
2018-04-24T00:21:22.153Z,9.83
2018-04-24T00:23:49.599Z,6.47
2018-04-24T00:26:17.037Z,8.80
2018-04-24T00:28:45.257Z,7.53
2018-04-24T00:31:12.723Z,8.47
2018-04-24T00:33:40.165Z,9.47
2018-04-24T00:36:07.645Z,12.40
2018-04-24T00:38:35.087Z,8.60
2018-04-24T00:41:02.534Z,7.23
2018-04-24T00:43:29.984Z,8.77
2018-04-24T00:45:57.453Z,9.53
2018-04-24T00:48:24.901Z,8.23
2018-04-24T00:50:52.355Z,6.37
2018-04-24T00:53:31.657Z,7.00
2018-04-24T00:55:59.869Z,9.37
2018-04-24T00:58:27.330Z,10.77
2018-04-24T01:00:54.785Z,8.37
2018-04-24T01:03:22.239Z,6.60
2018-04-24T01:05:49.703Z,7.97
2018-04-24T01:08:17.163Z,7.73
2018-04-24T01:10:44.621Z,7.40
2018-04-24T01:13:12.071Z,8.80
2018-04-24T01:15:39.518Z,7.83
2018-04-24T01:18:06.998Z,8.07
2018-04-24T01:20:34.447Z,9.07
2018-04-24T01:23:01.898Z,5.67
2018-04-24T01:25:29.339Z,7.10
2018-04-24T01:27:56.791Z,8.80
2018-04-24T01:30:24.246Z,8.50
2018-04-24T01:32:51.703Z,7.50
2018-04-24T01:35:19.155Z,8.33
2018-04-24T01:37:47.377Z,6.63
2018-04-24T01:40:14.852Z,6.93
2018-04-24T01:42:42.313Z,7.77
2018-04-24T01:45:09.836Z,10.40
2018-04-24T01:47:37.205Z,8.07
2018-04-24T01:50:04.657Z,5.47
2018-04-24T01:52:32.113Z,5.17
2018-04-24T01:54:59.571Z,6.33
2018-04-24T01:57:27.029Z,5.77
2018-04-24T01:59:54.462Z,5.77
2018-04-24T02:02:21.926Z,7.60
2018-04-24T02:04:49.375Z,4.83
2018-04-24T02:07:16.834Z,6.33
2018-04-24T02:09:44.277Z,5.57
2018-04-24T02:12:11.738Z,6.87
2018-04-24T02:14:39.185Z,5.07
2018-04-24T02:17:06.638Z,5.37
2018-04-24T02:19:34.856Z,4.87
2018-04-24T02:22:02.311Z,7.87
2018-04-24T02:24:29.772Z,7.50
2018-04-24T02:26:57.221Z,8.03
2018-04-24T02:29:24.675Z,5.27
2018-04-24T02:31:52.134Z,7.20
2018-04-24T02:34:19.586Z,5.60
2018-04-24T02:36:47.045Z,7.07
2018-04-24T02:39:14.490Z,7.00
2018-04-24T02:41:41.947Z,7.07
2018-04-24T02:44:09.386Z,6.77
2018-04-24T02:46:36.833Z,6.17
2018-04-24T02:49:05.055Z,6.10
2018-04-24T02:51:32.492Z,6.13
2018-04-24T02:53:59.936Z,5.57
2018-04-24T02:56:27.390Z,5.27
2018-04-24T02:58:54.835Z,7.17
2018-04-24T03:01:23.056Z,5.87
2018-04-24T03:03:50.515Z,6.83
2018-04-24T03:06:17.966Z,5.00
2018-04-24T03:08:45.419Z,8.23
2018-04-24T03:11:12.866Z,5.53
2018-04-24T03:13:40.326Z,8.03
2018-04-24T03:16:07.771Z,6.90
2018-04-24T03:18:35.227Z,7.10
2018-04-24T03:21:02.673Z,6.20
2018-04-24T03:23:30.121Z,6.70
2018-04-24T03:25:58.341Z,8.77
2018-04-24T03:28:25.783Z,7.27
2018-04-24T03:30:53.243Z,5.57
2018-04-24T03:33:20.707Z,7.13
2018-04-24T03:35:48.153Z,5.63
2018-04-24T03:38:15.610Z,7.07
2018-04-24T03:40:43.053Z,7.47
2018-04-24T03:43:10.523Z,7.53
2018-04-24T03:45:37.978Z,7.03
2018-04-24T03:48:05.434Z,7.83
2018-04-24T03:50:32.891Z,9.97
2018-04-24T03:53:00.327Z,7.93
2018-04-24T03:55:28.549Z,9.40
2018-04-24T03:57:56.003Z,6.40
2018-04-24T04:00:23.450Z,8.50
2018-04-24T04:02:50.913Z,8.70
2018-04-24T04:05:18.352Z,9.90
2018-04-24T04:07:45.810Z,7.27
2018-04-24T04:10:13.261Z,7.83
2018-04-24T04:12:40.729Z,9.83
2018-04-24T04:15:08.169Z,8.20
2018-04-24T04:17:47.505Z,8.47
2018-04-24T04:20:26.926Z,9.93
2018-04-24T04:23:06.989Z,8.23
2018-04-24T04:25:34.430Z,10.43
2018-04-24T04:28:02.662Z,9.43
2018-04-24T04:30:30.106Z,10.33
2018-04-24T04:32:57.629Z,9.10
2018-04-24T04:35:25.018Z,6.93
2018-04-24T04:37:52.462Z,8.80
2018-04-24T04:40:19.919Z,7.47
2018-04-24T04:42:47.386Z,6.90
2018-04-24T04:45:14.846Z,9.03
2018-04-24T04:47:43.056Z,10.27
2018-04-24T04:50:10.509Z,9.77
2018-04-24T04:52:37.941Z,8.03
2018-04-24T04:55:05.400Z,11.50
2018-04-24T04:57:32.857Z,10.10
2018-04-24T05:00:00.318Z,9.37
2018-04-24T05:02:27.776Z,10.30
2018-04-24T05:04:55.223Z,11.10
2018-04-24T05:07:22.678Z,8.17
2018-04-24T05:09:50.130Z,10.07
2018-04-24T05:14:51.361Z,8.83
2018-04-24T05:17:18.825Z,9.67
2018-04-24T05:19:46.295Z,11.27
2018-04-24T05:22:13.750Z,8.37
2018-04-24T05:24:41.198Z,9.47
2018-04-24T05:27:08.646Z,9.80
2018-04-24T05:29:36.861Z,7.57
2018-04-24T05:32:04.315Z,7.73
2018-04-24T05:34:31.775Z,10.20
2018-04-24T05:36:59.222Z,8.73
2018-04-24T05:39:26.674Z,7.63
2018-04-24T05:41:54.130Z,7.40
2018-04-24T05:44:21.600Z,10.47
2018-04-24T05:46:49.047Z,8.37
2018-04-24T05:49:16.497Z,11.40
2018-04-24T05:51:43.954Z,7.37
2018-04-24T05:54:11.390Z,12.03
2018-04-24T05:56:38.849Z,6.60
2018-04-24T05:59:06.307Z,11.13
2018-04-24T06:01:33.737Z,7.83
2018-04-24T06:04:01.958Z,9.90
2018-04-24T06:06:29.417Z,9.07
2018-04-24T06:08:56.964Z,7.57
2018-04-24T06:11:24.341Z,9.03
2018-04-24T06:13:52.571Z,7.50
2018-04-24T06:16:20.822Z,7.33
2018-04-24T06:18:48.269Z,9.70
2018-04-24T06:21:15.741Z,8.33
2018-04-24T06:23:43.191Z,9.20
2018-04-24T06:26:10.650Z,7.90
2018-04-24T06:28:38.190Z,9.97
2018-04-24T06:31:05.546Z,10.13
2018-04-24T06:33:33.009Z,8.63
2018-04-24T06:36:00.511Z,7.10
2018-04-24T06:38:27.913Z,8.73
2018-04-24T06:40:55.369Z,11.27
2018-04-24T06:43:22.833Z,10.07
2018-04-24T06:45:50.331Z,12.40
2018-04-24T06:48:18.546Z,12.27
2018-04-24T06:50:46.013Z,10.73
2018-04-24T06:53:13.480Z,12.23
2018-04-24T06:55:40.942Z,10.27
2018-04-24T06:58:08.386Z,7.97
2018-04-24T07:00:35.945Z,8.30
2018-04-24T07:03:03.341Z,11.27
2018-04-24T07:05:31.564Z,12.37
2018-04-24T07:07:59.022Z,8.77
2018-04-24T07:10:26.479Z,11.43
2018-04-24T07:12:53.986Z,13.33
2018-04-24T07:15:22.210Z,10.83
2018-04-24T07:17:49.653Z,12.53
2018-04-24T07:20:17.111Z,12.47
2018-04-24T07:22:44.561Z,7.93
2018-04-24T07:25:12.029Z,11.00
2018-04-24T07:27:39.490Z,11.57
2018-04-24T07:30:06.947Z,9.97
2018-04-24T07:32:34.392Z,12.53
2018-04-24T07:35:01.850Z,11.27
2018-04-24T07:37:29.289Z,12.30
2018-04-24T07:39:56.750Z,9.57
2018-04-24T07:42:24.190Z,9.80
2018-04-24T07:44:52.436Z,11.60
2018-04-24T07:47:19.891Z,11.83
2018-04-24T07:49:47.329Z,13.73
2018-04-24T07:52:14.793Z,10.90
2018-04-24T07:54:42.238Z,13.50
2018-04-24T07:57:09.695Z,8.97
2018-04-24T07:59:37.140Z,8.70
2018-04-24T08:02:04.602Z,8.10
2018-04-24T08:04:32.054Z,11.20
2018-04-24T08:06:59.521Z,12.67
2018-04-24T08:09:26.978Z,10.23
2018-04-24T08:11:54.430Z,6.33
2018-04-24T08:14:21.879Z,9.23
2018-04-24T08:16:49.323Z,11.43
2018-04-24T08:19:16.779Z,11.10
2018-04-24T08:21:44.226Z,11.83
2018-04-24T08:24:12.434Z,10.70
2018-04-24T08:26:39.889Z,14.43
2018-04-24T08:29:07.341Z,9.33
2018-04-24T08:31:34.809Z,10.77
2018-04-24T08:34:02.274Z,8.97
2018-04-24T08:36:29.721Z,9.70
2018-04-24T08:38:57.210Z,8.30
2018-04-24T08:41:24.637Z,12.17
2018-04-24T08:43:52.128Z,12.13
2018-04-24T08:46:19.580Z,8.70
2018-04-24T08:48:47.032Z,9.40
2018-04-24T08:51:14.518Z,9.37
2018-04-24T08:53:42.746Z,11.90
2018-04-24T08:56:10.202Z,11.30
2018-04-24T08:58:37.667Z,10.00
2018-04-24T09:01:05.130Z,9.20
2018-04-24T09:03:32.593Z,9.73
2018-04-24T09:06:00.049Z,9.53
2018-04-24T09:08:27.557Z,9.67
2018-04-24T09:10:54.951Z,10.43
2018-04-24T09:13:22.403Z,12.77
2018-04-24T09:15:49.886Z,11.47
2018-04-24T09:18:17.309Z,11.73
2018-04-24T09:20:44.765Z,11.57
2018-04-24T09:23:12.216Z,10.30
2018-04-24T09:25:39.868Z,10.13
2018-04-24T09:28:07.321Z,10.13
2018-04-24T09:30:34.798Z,11.30
2018-04-24T09:33:02.276Z,10.27
2018-04-24T09:35:29.720Z,10.77
2018-04-24T09:37:57.175Z,9.30
2018-04-24T09:40:24.633Z,9.13
2018-04-24T09:42:52.093Z,10.43
2018-04-24T09:45:19.550Z,7.63
2018-04-24T09:47:46.998Z,9.57
2018-04-24T09:50:14.599Z,10.60
2018-04-24T09:52:42.038Z,7.70
2018-04-24T09:55:09.498Z,8.70
2018-04-24T09:57:36.934Z,9.73
2018-04-24T10:00:04.387Z,10.63
2018-04-24T10:02:32.596Z,7.73
2018-04-24T10:05:00.043Z,9.37
2018-04-24T10:07:27.503Z,9.50
2018-04-24T10:09:54.946Z,9.33
2018-04-24T10:12:22.415Z,7.20
2018-04-24T10:14:49.876Z,7.97
2018-04-24T10:17:17.329Z,5.87
2018-04-24T10:19:44.842Z,5.40
2018-04-24T10:22:12.270Z,13.87
2018-04-24T10:24:39.725Z,7.77
2018-04-24T10:27:07.939Z,7.93
2018-04-24T10:29:35.390Z,9.47
2018-04-24T10:32:02.858Z,10.93
2018-04-24T10:34:30.305Z,8.60
2018-04-24T10:36:57.768Z,7.83
2018-04-24T10:39:25.220Z,7.57
2018-04-24T10:41:52.678Z,9.83
2018-04-24T10:44:20.143Z,10.30
2018-04-24T10:46:47.594Z,7.73
2018-04-24T10:49:15.049Z,4.40
2018-04-24T10:51:42.513Z,7.53
2018-04-24T10:54:09.958Z,6.53
2018-04-24T10:56:37.402Z,5.87
2018-04-24T10:59:04.857Z,5.20
2018-04-24T11:01:32.303Z,5.70
2018-04-24T11:04:00.522Z,8.17
2018-04-24T11:06:27.991Z,6.67
2018-04-24T11:08:55.440Z,9.73
2018-04-24T11:11:22.908Z,8.13
2018-04-24T11:13:50.356Z,7.93
2018-04-24T11:16:17.814Z,5.53
2018-04-24T11:18:45.257Z,8.67
2018-04-24T11:21:12.722Z,8.40
2018-04-24T11:23:40.187Z,9.43
2018-04-24T11:26:07.646Z,5.43
2018-04-24T11:28:35.098Z,11.47
2018-04-24T11:31:02.550Z,7.53
2018-04-24T11:33:30.019Z,6.67
2018-04-24T11:35:57.514Z,7.93
2018-04-24T11:38:24.958Z,4.63
2018-04-24T11:40:52.426Z,5.97
2018-04-24T11:43:20.648Z,5.27
2018-04-24T11:45:48.089Z,6.33
2018-04-24T11:48:15.568Z,7.30
2018-04-24T11:50:43.013Z,6.10
2018-04-24T11:53:10.462Z,6.40
2018-04-24T11:55:37.911Z,6.27
2018-04-24T11:58:05.351Z,5.90
2018-04-24T12:00:33.566Z,7.57
2018-04-24T12:03:01.020Z,5.97
2018-04-24T12:05:28.478Z,6.27
2018-04-24T12:07:55.936Z,5.10
2018-04-24T12:10:23.398Z,4.80
2018-04-24T12:12:50.847Z,7.17
2018-04-24T12:15:18.310Z,7.40
2018-04-24T12:17:45.785Z,6.17
2018-04-24T12:20:13.234Z,4.97
2018-04-24T12:22:40.689Z,6.67
2018-04-24T12:25:08.157Z,10.23
2018-04-24T12:27:35.614Z,6.27
2018-04-24T12:30:03.078Z,7.10
2018-04-24T12:32:30.541Z,5.23
2018-04-24T12:34:58.007Z,6.43
2018-04-24T12:37:25.470Z,7.03
2018-04-24T12:39:53.681Z,5.87
2018-04-24T12:42:21.134Z,6.83
2018-04-24T12:44:48.589Z,6.47
2018-04-24T12:47:16.050Z,5.33
2018-04-24T12:49:43.494Z,5.40
2018-04-24T12:52:10.949Z,7.37
2018-04-24T12:54:38.402Z,6.53
2018-04-24T12:57:05.860Z,8.17
2018-04-24T12:59:33.299Z,5.33
2018-04-24T13:02:01.518Z,6.43
2018-04-24T13:07:02.967Z,6.70
2018-04-24T13:09:30.409Z,5.27
2018-04-24T13:11:57.865Z,6.70
2018-04-24T13:14:26.077Z,4.83
2018-04-24T13:16:53.542Z,5.43
2018-04-24T13:19:21.065Z,5.17
2018-04-24T13:21:48.457Z,6.00
2018-04-24T13:24:15.909Z,4.40
2018-04-24T13:26:43.346Z,4.47
2018-04-24T13:29:10.797Z,5.30
2018-04-24T13:31:38.239Z,4.70
2018-04-24T13:34:05.702Z,5.23
2018-04-24T13:36:33.162Z,8.40
2018-04-24T13:39:00.608Z,5.53
2018-04-24T13:41:28.827Z,6.63
2018-04-24T13:43:57.055Z,6.73
2018-04-24T13:46:25.270Z,5.20
2018-04-24T13:48:52.718Z,7.27
2018-04-24T13:51:20.178Z,6.73
2018-04-24T13:53:47.621Z,6.63
2018-04-24T13:56:15.077Z,6.90
2018-04-24T13:58:42.550Z,5.00
2018-04-24T14:01:09.998Z,3.83
2018-04-24T14:03:37.455Z,4.73
2018-04-24T14:06:04.922Z,6.37
2018-04-24T14:08:32.379Z,6.10
2018-04-24T14:10:59.855Z,8.80
2018-04-24T14:13:27.310Z,6.83
2018-04-24T14:15:54.768Z,6.93
2018-04-24T14:18:22.217Z,7.13
2018-04-24T14:20:49.674Z,5.20
2018-04-24T14:23:17.135Z,4.87
2018-04-24T14:25:44.578Z,8.63
2018-04-24T14:28:12.046Z,6.50
2018-04-24T14:30:39.494Z,8.80
2018-04-24T14:33:06.944Z,6.73
2018-04-24T14:35:34.390Z,6.13
2018-04-24T14:38:01.857Z,6.87
2018-04-24T14:40:29.322Z,11.23
2018-04-24T14:42:56.761Z,4.67
2018-04-24T14:45:24.223Z,5.83
2018-04-24T14:47:51.674Z,5.27
2018-04-24T14:50:19.125Z,6.90
2018-04-24T14:52:46.590Z,4.93
2018-04-24T14:55:14.039Z,8.07
2018-04-24T14:57:41.499Z,5.13
2018-04-24T15:00:08.954Z,5.67
2018-04-24T15:02:36.419Z,6.30
2018-04-24T15:05:03.874Z,7.33
2018-04-24T15:07:31.333Z,4.67
2018-04-24T15:09:58.793Z,6.43
2018-04-24T15:12:26.249Z,7.43
2018-04-24T15:14:53.708Z,7.57
2018-04-24T15:17:21.166Z,5.10
2018-04-24T15:19:48.622Z,7.53
2018-04-24T15:22:16.070Z,7.33
2018-04-24T15:24:43.533Z,7.53
2018-04-24T15:27:10.990Z,5.13
2018-04-24T15:29:38.442Z,5.80
2018-04-24T15:32:05.900Z,6.80
2018-04-24T15:34:33.341Z,6.00
2018-04-24T15:37:00.803Z,5.03
2018-04-24T15:39:28.245Z,5.30
2018-04-24T15:41:56.469Z,6.83
2018-04-24T15:44:23.923Z,7.70
2018-04-24T15:46:51.378Z,4.17
2018-04-24T15:49:18.832Z,5.30
2018-04-24T15:51:46.296Z,4.87
2018-04-24T15:54:13.756Z,11.60
2018-04-24T15:56:41.226Z,7.13
2018-04-24T15:59:08.677Z,5.43
2018-04-24T16:01:36.166Z,6.23
2018-04-24T16:04:04.401Z,7.30
2018-04-24T16:06:31.851Z,5.67
2018-04-24T16:08:59.314Z,5.63
2018-04-24T16:11:27.525Z,6.10
2018-04-24T16:13:55.747Z,6.63
2018-04-24T16:16:23.197Z,7.17
2018-04-24T16:18:50.645Z,4.07
2018-04-24T16:21:18.098Z,6.93
2018-04-24T16:23:45.538Z,3.67
2018-04-24T16:26:13.759Z,6.73
2018-04-24T16:28:41.216Z,6.90
2018-04-24T16:31:08.666Z,5.50
2018-04-24T16:33:36.117Z,9.67
2018-04-24T16:36:03.581Z,6.63
2018-04-24T16:38:31.040Z,7.33
2018-04-24T16:40:58.496Z,6.57
2018-04-24T16:43:25.958Z,4.53
2018-04-24T16:45:53.430Z,4.87
2018-04-24T16:48:20.894Z,5.50
2018-04-24T16:50:48.341Z,5.63
2018-04-24T16:53:15.797Z,6.20
2018-04-24T16:55:43.253Z,4.60
2018-04-24T16:58:10.699Z,6.27
2018-04-24T17:00:38.204Z,10.77
2018-04-24T17:03:05.626Z,5.77
2018-04-24T17:05:33.082Z,6.27
2018-04-24T17:08:00.524Z,5.83
2018-04-24T17:10:27.971Z,6.07
2018-04-24T17:12:55.418Z,5.63
2018-04-24T17:15:22.875Z,5.77
2018-04-24T17:17:50.337Z,5.40
2018-04-24T17:20:17.808Z,6.00
2018-04-24T17:22:45.279Z,6.97
2018-04-24T17:25:12.742Z,5.20
2018-04-24T17:27:40.195Z,8.57
2018-04-24T17:30:07.635Z,7.17
2018-04-24T17:32:35.097Z,5.97
2018-04-24T17:35:02.531Z,6.80
2018-04-24T17:37:29.995Z,6.27
2018-04-24T17:39:57.435Z,4.97
2018-04-24T17:42:24.881Z,7.00
2018-04-24T17:44:52.337Z,5.97
2018-04-24T17:47:20.558Z,5.37
2018-04-24T17:49:48.017Z,5.93
2018-04-24T17:52:15.453Z,8.67
2018-04-24T17:54:42.924Z,3.73
2018-04-24T17:57:10.381Z,5.90
2018-04-24T17:59:37.854Z,5.00
2018-04-24T18:02:05.293Z,5.70
2018-04-24T18:04:32.754Z,5.27
2018-04-24T18:07:00.217Z,7.13
2018-04-24T18:09:27.669Z,5.17
2018-04-24T18:11:55.124Z,6.47
2018-04-24T18:14:23.432Z,3.37
2018-04-24T18:16:50.894Z,5.63
2018-04-24T18:19:18.342Z,5.20
2018-04-24T18:21:45.798Z,7.87
2018-04-24T18:24:13.254Z,7.83
2018-04-24T18:26:40.705Z,7.30
2018-04-24T18:29:08.181Z,22.83
2018-04-24T18:31:35.634Z,8.30
2018-04-24T18:34:03.090Z,18.40
2018-04-24T18:36:30.540Z,25.37
2018-04-24T18:38:57.992Z,18.03
2018-04-24T18:41:25.475Z,19.03
2018-04-24T18:43:53.685Z,50.00
2018-04-24T18:46:21.155Z,21.47
2018-04-24T18:48:48.615Z,9.07
2018-04-24T18:51:16.058Z,11.00
2018-04-24T18:53:43.511Z,10.43
2018-04-24T18:56:10.959Z,14.93
2018-04-24T18:58:38.410Z,32.67
2018-04-24T19:01:05.870Z,26.07
2018-04-24T19:03:33.323Z,20.37
2018-04-24T19:06:00.779Z,12.33
2018-04-24T19:08:28.251Z,15.37
2018-04-24T19:10:55.698Z,28.53
2018-04-24T19:13:23.162Z,19.47
2018-04-24T19:15:50.622Z,7.97
2018-04-24T19:18:18.086Z,20.23
2018-04-24T19:20:45.550Z,14.93
2018-04-24T19:23:12.997Z,22.60
2018-04-24T19:25:43.255Z,24.07
2018-04-24T19:28:10.729Z,17.20
2018-04-24T19:30:38.196Z,15.97
2018-04-24T19:33:06.406Z,16.17
2018-04-24T19:35:33.863Z,11.43
2018-04-24T19:38:01.297Z,8.80
2018-04-24T19:40:34.329Z,8.50
2018-04-24T19:43:01.791Z,12.70
2018-04-24T19:45:29.241Z,10.73
2018-04-24T19:47:56.697Z,9.37
2018-04-24T19:50:24.157Z,14.90
2018-04-24T19:52:51.621Z,18.10
2018-04-24T19:55:24.880Z,12.30
2018-04-24T19:57:52.349Z,15.33
2018-04-24T20:00:19.802Z,8.37
2018-04-24T20:02:47.254Z,12.87
2018-04-24T20:05:14.701Z,7.80
2018-04-24T20:07:42.412Z,10.17
2018-04-24T20:10:09.875Z,12.83
2018-04-24T20:12:37.340Z,8.40
2018-04-24T20:15:04.783Z,9.93
2018-04-24T20:17:32.229Z,7.33
2018-04-24T20:19:59.691Z,13.53
2018-04-24T20:22:27.135Z,9.53
2018-04-24T20:24:54.590Z,9.33
2018-04-24T20:27:22.043Z,9.70
2018-04-24T20:29:49.493Z,9.60
2018-04-24T20:32:16.965Z,7.83
2018-04-24T20:34:44.413Z,6.37
2018-04-24T20:37:11.861Z,12.40
2018-04-24T20:39:39.384Z,7.40
2018-04-24T20:42:07.608Z,7.73
2018-04-24T20:44:35.061Z,7.20
2018-04-24T20:47:02.509Z,8.20
2018-04-24T20:49:29.955Z,12.47
2018-04-24T20:51:57.409Z,7.47
2018-04-24T20:54:24.906Z,7.70
2018-04-24T20:56:52.352Z,6.83
2018-04-24T20:59:19.814Z,8.20
2018-04-24T21:01:47.273Z,7.80
2018-04-24T21:04:14.725Z,11.20
2018-04-24T21:06:42.161Z,7.53
2018-04-24T21:09:09.622Z,9.20
2018-04-24T21:11:37.061Z,5.47
2018-04-24T21:14:04.517Z,9.50
2018-04-24T21:16:31.966Z,6.70
2018-04-24T21:18:59.416Z,5.67
2018-04-24T21:21:27.633Z,8.73
2018-04-24T21:23:55.086Z,6.37
2018-04-24T21:26:22.553Z,8.60
2018-04-24T21:28:50.027Z,7.73
2018-04-24T21:31:17.507Z,9.60
2018-04-24T21:33:44.954Z,6.80
2018-04-24T21:36:12.413Z,7.50
2018-04-24T21:38:39.876Z,7.17
2018-04-24T21:41:08.094Z,8.67
2018-04-24T21:43:35.554Z,6.47
2018-04-24T21:46:03.018Z,6.40
2018-04-24T21:48:30.459Z,6.93
2018-04-24T21:50:57.921Z,7.47
2018-04-24T21:53:25.373Z,7.70
2018-04-24T21:55:52.833Z,7.83
2018-04-24T21:58:20.299Z,9.43
2018-04-24T22:00:47.750Z,7.17
2018-04-24T22:03:15.211Z,8.23
2018-04-24T22:05:42.667Z,9.57
2018-04-24T22:08:10.128Z,7.03
2018-04-24T22:10:37.578Z,7.27
2018-04-24T22:13:05.038Z,8.77
2018-04-24T22:15:32.497Z,6.70
2018-04-24T22:17:59.966Z,5.20
2018-04-24T22:20:27.431Z,9.40
2018-04-24T22:22:54.893Z,6.97
2018-04-24T22:25:22.345Z,6.03
2018-04-24T22:27:49.797Z,9.90
2018-04-24T22:30:19.193Z,7.83
2018-04-24T22:32:46.644Z,7.40
2018-04-24T22:35:14.095Z,6.00
2018-04-24T22:37:41.541Z,5.53
2018-04-24T22:40:08.982Z,6.53
2018-04-24T22:42:36.443Z,9.03
2018-04-24T22:45:03.879Z,7.47
2018-04-24T22:47:32.102Z,8.37
2018-04-24T22:49:59.550Z,5.97
2018-04-24T22:52:27.141Z,5.60
2018-04-24T22:54:54.470Z,5.00
2018-04-24T22:57:21.918Z,4.93
2018-04-24T22:59:49.373Z,5.10
2018-04-24T23:02:16.823Z,7.60
2018-04-24T23:04:44.283Z,5.30
2018-04-24T23:07:11.746Z,4.50
2018-04-24T23:09:39.199Z,7.93
2018-04-24T23:12:18.612Z,3.93
2018-04-24T23:14:58.864Z,6.90
2018-04-24T23:17:38.258Z,6.67
2018-04-24T23:20:16.442Z,4.97
2018-04-24T23:22:43.880Z,6.70
2018-04-24T23:25:11.339Z,5.20
2018-04-24T23:27:38.798Z,7.10
2018-04-24T23:30:06.245Z,5.73
2018-04-24T23:32:34.462Z,5.23
2018-04-24T23:35:01.914Z,7.00
2018-04-24T23:37:29.370Z,4.33
2018-04-24T23:39:56.825Z,5.40
2018-04-24T23:42:24.277Z,5.03
2018-04-24T23:44:51.735Z,6.13
2018-04-24T23:47:19.179Z,6.03
2018-04-24T23:49:46.631Z,6.33
2018-04-24T23:52:14.071Z,7.13
2018-04-24T23:54:42.282Z,5.87
2018-04-24T23:57:09.721Z,5.27
2018-04-24T23:59:37.169Z,8.03
